Mountain Home, Idaho
Current Conditions -  °F | °C
As of 8:59 PM on Tuesday 27 Jan 2015 (Local Time) from KMUO Reporting Station
Light Rain Light Rain  
Wind Chill: 29°   Ceiling: 300
Heat Index: 35°   Visibility: 0.62mi
Dew Point: 35°   Wind: 7mph
Humidity: 99%   Direction: 280°W
Pressure: 30.15"   Gusts: NA
Location:  43.13°N, 115.69°W
Report Text: KMUO 280359Z 28006KT 5/8SM R30/5500FT -RA FG OVC003 02/02 A3015 RMK SLP230 P0002 T00180017
Loading
Personal Weather Stations






























Interactive Weather Map New forecast layout! Learn more

10-Day Weather Forecast

Advertisements
Track Severe Weather on mobile